Avery, Iowa
Current Conditions -  °F | °C
As of 1:53 AM on Tuesday 27 Jan 2015 (Local Time) from KOTM Reporting Station
Clear Clear  
Wind Chill: 25°   Ceiling: Unl
Heat Index: 34°   Visibility: 10mi
Dew Point: 30°   Wind: 13mph
Humidity: 85%   Direction: 310°NW
Pressure: 30"   Gusts: NA
Location:  41.0299°N, 92.7795°W
Report Text: KOTM 270753Z AUTO 31011KT 10SM CLR 01/M01 A3000 RMK AO2 SLP165 T00111011
Loading
Personal Weather Stations






























Interactive Weather Map New forecast layout! Learn more

10-Day Weather Forecast

Advertisements
Track Severe Weather on mobile